Time;durP1;ratioP1;P1;durP2;ratioP2;P2;SDS_P1;SDS_P2;PMS_P1;PMS_P2;Temp;Humidity;BMP_temperature;BMP_pressure;BME280_temperature;BME280_humidity;BME280_pressure;Samples;Min_cycle;Max_cycle;Signal;HPM_P1;HPM_P2
2022/04/24 00:01:57;;;;;;;4.90;1.03;;;12.50;99.90;;;;;;5017004;28;20258;-81
2022/04/24 00:04:24;;;;;;;0.20;0.20;;;12.50;99.90;;;;;;5000473;28;20178;-82
2022/04/24 00:06:51;;;;;;;4.07;1.33;;;12.50;99.90;;;;;;5007033;28;20257;-81
2022/04/24 00:09:16;;;;;;;0.57;0.57;;;12.50;99.90;;;;;;5000724;28;20203;-81
2022/04/24 00:11:42;;;;;;;0.60;0.60;;;12.50;99.90;;;;;;5006910;28;20186;-82
2022/04/24 00:14:10;;;;;;;0.73;0.73;;;12.50;99.90;;;;;;4999948;28;20241;-81
2022/04/24 00:16:37;;;;;;;0.60;0.60;;;12.50;99.90;;;;;;5001450;28;20233;-82
2022/04/24 00:19:04;;;;;;;0.27;0.27;;;12.50;99.90;;;;;;5000966;28;20199;-82
2022/04/24 00:21:29;;;;;;;0.37;0.37;;;12.60;99.90;;;;;;5007972;28;20584;-81
2022/04/24 00:23:55;;;;;;;0.43;0.43;;;12.60;99.90;;;;;;5015311;28;20197;-81
2022/04/24 00:26:20;;;;;;;1.10;0.67;;;12.60;99.90;;;;;;5007634;28;20188;-81
2022/04/24 00:28:46;;;;;;;0.70;0.70;;;12.70;99.90;;;;;;5014656;28;20187;-81
2022/04/24 00:31:11;;;;;;;1.00;0.60;;;12.70;99.90;;;;;;5006428;28;20247;-81
2022/04/24 00:33:37;;;;;;;0.40;0.40;;;12.80;99.90;;;;;;5000983;28;20191;-82
2022/04/24 00:36:03;;;;;;;0.30;0.30;;;12.80;99.90;;;;;;5015385;28;20187;-82
2022/04/24 00:38:31;;;;;;;1.50;0.40;;;12.80;99.90;;;;;;5005947;28;20279;-82
2022/04/24 00:40:56;;;;;;;0.87;0.40;;;12.80;99.90;;;;;;5006331;28;20184;-82
2022/04/24 00:43:22;;;;;;;0.40;0.40;;;12.70;99.90;;;;;;5005180;28;20188;-81
2022/04/24 00:45:49;;;;;;;0.37;0.37;;;12.70;99.90;;;;;;5006570;28;20187;-82
2022/04/24 00:48:14;;;;;;;0.60;0.60;;;12.80;99.90;;;;;;5005875;28;20205;-82
2022/04/24 00:50:40;;;;;;;1.50;0.30;;;12.70;99.90;;;;;;5000620;28;20259;-82
2022/04/24 00:53:06;;;;;;;0.30;0.30;;;12.80;99.90;;;;;;5013796;28;20186;-81
2022/04/24 00:55:33;;;;;;;0.50;0.40;;;12.80;99.90;;;;;;4999863;28;20174;-81
2022/04/24 00:57:58;;;;;;;0.20;0.20;;;12.80;99.90;;;;;;5005391;28;20258;-82
2022/04/24 01:00:24;;;;;;;0.90;0.57;;;12.80;99.90;;;;;;5001950;28;20195;-82
2022/04/24 01:02:50;;;;;;;0.30;0.30;;;12.80;99.90;;;;;;5014249;28;20179;-82
2022/04/24 01:05:17;;;;;;;1.23;0.57;;;12.80;99.90;;;;;;5000501;28;20262;-81
2022/04/24 01:07:43;;;;;;;0.33;0.33;;;12.80;99.90;;;;;;4999647;28;20257;-82
2022/04/24 01:10:09;;;;;;;0.30;0.30;;;12.80;99.90;;;;;;4999178;28;20213;-82
2022/04/24 01:12:34;;;;;;;0.67;0.50;;;12.80;99.90;;;;;;5006326;28;20179;-81
2022/04/24 01:15:00;;;;;;;0.30;0.30;;;12.90;99.90;;;;;;5001008;28;20729;-82
2022/04/24 01:17:26;;;;;;;0.33;0.33;;;12.80;99.90;;;;;;4999502;28;20764;-82
2022/04/24 01:19:53;;;;;;;0.57;0.57;;;12.80;99.90;;;;;;5012571;28;20222;-82
2022/04/24 01:22:19;;;;;;;0.50;0.50;;;12.80;99.90;;;;;;4999847;28;20194;-83
2022/04/24 01:24:45;;;;;;;0.23;0.23;;;12.80;99.90;;;;;;5001129;28;20650;-82
2022/04/24 01:27:10;;;;;;;0.40;0.40;;;12.80;99.90;;;;;;5014912;28;20274;-82
2022/04/24 01:29:36;;;;;;;0.40;0.40;;;12.90;99.90;;;;;;5000064;28;20226;-81
2022/04/24 01:32:01;;;;;;;0.40;0.40;;;12.80;99.90;;;;;;4999357;28;20219;-82
2022/04/24 01:34:27;;;;;;;1.20;0.93;;;12.80;99.90;;;;;;4998668;28;20230;-82
2022/04/24 01:36:52;;;;;;;0.53;0.53;;;12.90;99.90;;;;;;5000565;28;20236;-82
2022/04/24 01:39:18;;;;;;;0.57;0.57;;;12.80;99.90;;;;;;4999234;28;20214;-82
2022/04/24 01:41:44;;;;;;;0.37;0.37;;;12.80;99.90;;;;;;4999417;28;20192;-82
2022/04/24 01:44:10;;;;;;;0.40;0.23;;;12.80;99.90;;;;;;5005211;28;20277;-82
2022/04/24 01:46:36;;;;;;;1.87;0.87;;;12.80;99.90;;;;;;4999791;28;20613;-82
2022/04/24 01:49:01;;;;;;;0.60;0.50;;;12.90;99.90;;;;;;5015747;28;20580;-81
2022/04/24 01:51:27;;;;;;;0.30;0.30;;;12.80;99.90;;;;;;4998556;28;20684;-82
2022/04/24 01:53:53;;;;;;;0.33;0.33;;;12.80;99.90;;;;;;5006579;28;20287;-81
2022/04/24 01:56:18;;;;;;;0.30;0.30;;;12.80;99.90;;;;;;5013563;28;20235;-81
2022/04/24 01:58:44;;;;;;;0.20;0.20;;;12.80;99.90;;;;;;4998550;28;20188;-81
2022/04/24 02:01:09;;;;;;;0.43;0.30;;;12.80;99.90;;;;;;5012923;28;20206;-81
2022/04/24 02:03:36;;;;;;;1.20;1.03;;;12.80;99.90;;;;;;5004352;28;20189;-82
2022/04/24 02:06:03;;;;;;;0.30;0.30;;;12.80;99.90;;;;;;5013542;28;20795;-82
2022/04/24 02:08:30;;;;;;;0.40;0.40;;;12.80;99.90;;;;;;5004334;28;20202;-82
2022/04/24 02:10:56;;;;;;;0.67;0.67;;;12.80;99.90;;;;;;5004788;28;20943;-82
2022/04/24 02:13:21;;;;;;;0.57;0.57;;;12.70;99.90;;;;;;4998982;28;20181;-82
2022/04/24 02:15:47;;;;;;;0.13;0.13;;;12.80;99.90;;;;;;5014026;28;20188;-81
2022/04/24 02:18:12;;;;;;;2.43;0.60;;;12.80;99.90;;;;;;5004524;28;21301;-81
2022/04/24 02:20:38;;;;;;;1.03;0.77;;;12.70;99.90;;;;;;5004830;28;20196;-81
2022/04/24 02:23:04;;;;;;;0.50;0.43;;;12.70;99.90;;;;;;5012913;28;20183;-82
2022/04/24 02:25:30;;;;;;;0.40;0.40;;;12.70;99.90;;;;;;4998212;28;20536;-82
2022/04/24 02:27:56;;;;;;;0.60;0.57;;;12.70;99.90;;;;;;4998538;28;20243;-81
2022/04/24 02:30:27;;;;;;;0.57;0.40;;;12.70;99.90;;;;;;4999112;28;20203;-82
2022/04/24 02:32:57;;;;;;;0.50;0.47;;;12.70;99.90;;;;;;5013409;28;20183;-82
2022/04/24 02:35:23;;;;;;;2.60;1.40;;;12.70;99.90;;;;;;5012854;28;20187;-81
2022/04/24 02:37:48;;;;;;;0.60;0.60;;;12.70;99.90;;;;;;4998484;28;20202;-82
2022/04/24 02:40:17;;;;;;;0.80;0.80;;;12.70;99.90;;;;;;4997005;28;20214;-82
2022/04/24 02:42:42;;;;;;;0.77;0.40;;;12.70;99.90;;;;;;4997098;28;20250;-82
2022/04/24 02:45:09;;;;;;;0.53;0.30;;;12.70;99.90;;;;;;5013004;28;20656;-82
2022/04/24 02:47:38;;;;;;;0.47;0.47;;;12.70;99.90;;;;;;4998488;28;20302;-81
2022/04/24 02:50:04;;;;;;;0.37;0.37;;;12.70;99.90;;;;;;5004104;28;20620;-82
2022/04/24 02:52:29;;;;;;;1.17;0.43;;;12.60;99.90;;;;;;5003134;28;20213;-81
2022/04/24 02:54:55;;;;;;;0.40;0.40;;;12.60;99.90;;;;;;4996906;28;20180;-81
2022/04/24 02:57:20;;;;;;;1.30;0.80;;;12.60;99.90;;;;;;5004426;28;20214;-81
2022/04/24 02:59:49;;;;;;;0.50;0.40;;;12.60;99.90;;;;;;4997228;28;20200;-82
2022/04/24 03:02:15;;;;;;;0.73;0.30;;;12.60;99.90;;;;;;5000091;28;20523;-82
2022/04/24 03:04:41;;;;;;;0.73;0.53;;;12.60;99.90;;;;;;4995801;28;20188;-80
2022/04/24 03:07:07;;;;;;;0.50;0.50;;;12.60;99.90;;;;;;5003359;28;20203;-81
2022/04/24 03:09:33;;;;;;;0.40;0.37;;;12.50;99.90;;;;;;4995768;28;20306;-81
2022/04/24 03:11:58;;;;;;;0.97;0.97;;;12.50;99.90;;;;;;5004096;28;20270;-81
2022/04/24 03:14:24;;;;;;;0.87;0.70;;;12.40;99.90;;;;;;4999694;28;20625;-81
2022/04/24 03:16:50;;;;;;;0.73;0.73;;;12.40;99.90;;;;;;5012918;28;20208;-81
2022/04/24 03:19:16;;;;;;;0.30;0.30;;;12.40;99.90;;;;;;4998996;28;20209;-81
2022/04/24 03:21:41;;;;;;;0.50;0.50;;;12.30;99.90;;;;;;5017055;28;20566;-81
2022/04/24 03:24:07;;;;;;;1.03;0.30;;;12.30;99.90;;;;;;5007150;28;20201;-81
2022/04/24 03:26:32;;;;;;;0.37;0.37;;;12.20;99.90;;;;;;5000364;28;20204;-81
2022/04/24 03:28:58;;;;;;;0.30;0.30;;;12.20;99.90;;;;;;5000680;28;20207;-81
2022/04/24 03:31:24;;;;;;;0.37;0.37;;;12.20;99.90;;;;;;5007148;28;20605;-81
2022/04/24 03:33:52;;;;;;;0.50;0.50;;;12.10;99.90;;;;;;5006735;28;20187;-81
2022/04/24 03:36:18;;;;;;;0.83;0.43;;;12.10;99.90;;;;;;5001688;28;20203;-80
2022/04/24 03:38:43;;;;;;;0.30;0.30;;;12.10;99.90;;;;;;5006767;28;20183;-82
2022/04/24 03:41:09;;;;;;;0.20;0.20;;;12.10;99.90;;;;;;5006366;28;20211;-81
2022/04/24 03:43:34;;;;;;;0.47;0.40;;;12.10;99.90;;;;;;5015916;28;20183;-81
2022/04/24 03:46:00;;;;;;;0.40;0.40;;;12.10;99.90;;;;;;5015471;28;20216;-81
2022/04/24 03:48:25;;;;;;;0.20;0.20;;;12.00;99.90;;;;;;5002243;28;20199;-82
2022/04/24 03:50:51;;;;;;;1.20;0.67;;;12.00;99.90;;;;;;4999271;28;20211;-81
2022/04/24 03:53:18;;;;;;;0.40;0.40;;;12.00;99.90;;;;;;5000863;28;20194;-81
2022/04/24 03:55:45;;;;;;;0.20;0.20;;;12.00;99.90;;;;;;5006632;28;20187;-81
2022/04/24 03:58:11;;;;;;;0.50;0.50;;;12.00;99.90;;;;;;5000046;28;20273;-81
2022/04/24 04:00:37;;;;;;;0.47;0.47;;;12.00;99.90;;;;;;5001488;28;20338;-80
2022/04/24 04:03:02;;;;;;;2.20;0.53;;;12.00;99.90;;;;;;5014821;28;20210;-80
2022/04/24 04:05:28;;;;;;;0.43;0.43;;;12.00;99.90;;;;;;5001896;28;20190;-81
2022/04/24 04:07:53;;;;;;;1.20;0.53;;;12.00;99.90;;;;;;5005987;28;20196;-81
2022/04/24 04:10:19;;;;;;;1.03;0.90;;;12.00;99.90;;;;;;5000394;28;20206;-81
2022/04/24 04:12:44;;;;;;;0.20;0.20;;;12.00;99.90;;;;;;5007797;28;20827;-81
2022/04/24 04:15:10;;;;;;;0.60;0.60;;;12.10;99.90;;;;;;5007080;28;20315;-81
2022/04/24 04:17:36;;;;;;;0.30;0.30;;;12.10;99.90;;;;;;5006817;28;20560;-81
2022/04/24 04:20:01;;;;;;;0.97;0.70;;;12.00;99.90;;;;;;4999580;28;20201;-80
2022/04/24 04:22:27;;;;;;;0.30;0.30;;;12.10;99.90;;;;;;5005860;28;20194;-79
2022/04/24 04:24:53;;;;;;;0.40;0.40;;;12.10;99.90;;;;;;5002115;28;20649;-79
2022/04/24 04:27:19;;;;;;;1.13;0.43;;;12.10;99.90;;;;;;5015409;28;20192;-80
2022/04/24 04:29:45;;;;;;;0.30;0.30;;;12.20;99.90;;;;;;4998695;28;20211;-80
2022/04/24 04:32:10;;;;;;;0.33;0.33;;;12.20;99.90;;;;;;4998896;28;20198;-79
2022/04/24 04:34:36;;;;;;;0.73;0.73;;;12.20;99.90;;;;;;5005615;28;20190;-79
2022/04/24 04:37:02;;;;;;;1.30;0.73;;;12.30;99.90;;;;;;5000137;28;20210;-79
2022/04/24 04:39:27;;;;;;;0.37;0.37;;;12.20;99.90;;;;;;5000653;28;20836;-79
2022/04/24 04:41:53;;;;;;;0.77;0.77;;;12.20;99.90;;;;;;5005430;28;20180;-80
2022/04/24 04:44:18;;;;;;;0.33;0.33;;;12.30;99.90;;;;;;4998708;28;20237;-80
2022/04/24 04:46:44;;;;;;;0.53;0.40;;;12.30;99.90;;;;;;5005042;28;20182;-80
2022/04/24 04:49:09;;;;;;;0.67;0.40;;;12.40;99.90;;;;;;4998305;28;20203;-80
2022/04/24 04:51:35;;;;;;;1.70;0.77;;;12.40;99.90;;;;;;4999921;28;20181;-80
2022/04/24 04:54:01;;;;;;;0.53;0.53;;;12.30;99.90;;;;;;4997752;28;20192;-80
2022/04/24 04:56:26;;;;;;;0.30;0.30;;;12.40;99.90;;;;;;5001339;28;20223;-80
2022/04/24 04:58:52;;;;;;;0.40;0.40;;;12.40;99.90;;;;;;4999770;28;20242;-80
2022/04/24 05:01:18;;;;;;;0.33;0.33;;;12.30;99.90;;;;;;4998845;28;20189;-80
2022/04/24 05:03:43;;;;;;;1.27;1.20;;;12.40;99.90;;;;;;4999986;28;20174;-80
2022/04/24 05:06:09;;;;;;;0.13;0.13;;;12.50;99.90;;;;;;5014122;28;20719;-80
2022/04/24 05:08:35;;;;;;;0.43;0.43;;;12.30;99.90;;;;;;5015460;28;20199;-80
2022/04/24 05:11:01;;;;;;;0.53;0.50;;;12.30;99.90;;;;;;4998340;28;20184;-80
2022/04/24 05:13:27;;;;;;;2.73;1.23;;;12.20;99.90;;;;;;5005316;28;20190;-80
2022/04/24 05:15:53;;;;;;;0.33;0.30;;;12.20;99.90;;;;;;4999715;28;20194;-79
2022/04/24 05:18:19;;;;;;;0.10;0.10;;;12.20;99.90;;;;;;4998145;28;20253;-80
2022/04/24 05:20:44;;;;;;;0.37;0.37;;;12.20;99.90;;;;;;4999614;28;20601;-80
2022/04/24 05:23:10;;;;;;;0.60;0.60;;;12.10;99.90;;;;;;4996799;28;20679;-79
2022/04/24 05:25:36;;;;;;;0.40;0.40;;;12.10;99.90;;;;;;5000896;28;20188;-80
2022/04/24 05:28:04;;;;;;;0.33;0.33;;;12.10;99.90;;;;;;4998309;28;20233;-80
2022/04/24 05:30:30;;;;;;;0.50;0.50;;;12.10;99.90;;;;;;5004371;28;20205;-79
2022/04/24 05:32:55;;;;;;;0.70;0.53;;;12.10;99.90;;;;;;4998482;28;20242;-80
2022/04/24 05:35:22;;;;;;;0.90;0.53;;;12.10;99.90;;;;;;4997295;28;21046;-80
2022/04/24 05:37:48;;;;;;;0.60;0.57;;;12.10;99.90;;;;;;4998749;28;20237;-79
2022/04/24 05:40:14;;;;;;;0.60;0.60;;;12.10;99.90;;;;;;4998226;28;20196;-80
2022/04/24 05:42:49;;;;;;;0.70;0.50;;;12.20;99.90;;;;;;4998426;28;20182;-79
2022/04/24 05:45:18;;;;;;;0.60;0.50;;;12.30;99.90;;;;;;4998467;28;20261;-79
2022/04/24 05:47:46;;;;;;;0.90;0.80;;;12.20;99.90;;;;;;5013907;28;20270;-79
2022/04/24 05:50:13;;;;;;;0.20;0.20;;;12.20;99.90;;;;;;5004035;28;20205;-80
2022/04/24 05:52:39;;;;;;;0.80;0.60;;;12.20;99.90;;;;;;4998016;28;20192;-80
2022/04/24 05:55:05;;;;;;;0.40;0.40;;;12.10;99.90;;;;;;4998698;28;20181;-79
2022/04/24 05:57:30;;;;;;;0.50;0.40;;;12.00;99.90;;;;;;4998195;28;20216;-80
2022/04/24 05:59:57;;;;;;;0.47;0.47;;;12.00;99.90;;;;;;5012191;28;20207;-80
2022/04/24 06:02:23;;;;;;;0.20;0.20;;;11.90;99.90;;;;;;5014010;28;20275;-80
2022/04/24 06:04:49;;;;;;;1.27;0.97;;;12.00;99.90;;;;;;5004102;28;20615;-80
2022/04/24 06:07:14;;;;;;;0.53;0.53;;;11.90;99.90;;;;;;4997746;28;20201;-80
2022/04/24 06:09:40;;;;;;;0.83;0.40;;;12.00;99.90;;;;;;4998647;28;20215;-79
2022/04/24 06:12:06;;;;;;;0.33;0.33;;;12.00;99.90;;;;;;4998774;28;20266;-81
2022/04/24 06:14:31;;;;;;;0.20;0.20;;;12.10;99.90;;;;;;4999301;28;20238;-80
2022/04/24 06:16:58;;;;;;;0.63;0.60;;;12.10;99.90;;;;;;5002876;28;20199;-80
2022/04/24 06:19:24;;;;;;;1.23;0.73;;;12.10;99.90;;;;;;5003969;28;20206;-81
2022/04/24 06:21:49;;;;;;;0.33;0.20;;;12.10;99.90;;;;;;4998570;28;20179;-80
2022/04/24 06:24:15;;;;;;;1.67;0.33;;;12.00;99.90;;;;;;5003631;28;20183;-80
2022/04/24 06:26:43;;;;;;;1.47;0.73;;;12.00;99.90;;;;;;5004495;28;20196;-80
2022/04/24 06:29:08;;;;;;;1.93;0.83;;;11.90;99.90;;;;;;4997416;28;20294;-80
2022/04/24 06:31:34;;;;;;;2.47;0.40;;;11.90;99.90;;;;;;5012556;28;20274;-80
2022/04/24 06:33:59;;;;;;;0.50;0.50;;;12.00;99.90;;;;;;5012781;28;20180;-79
2022/04/24 06:36:25;;;;;;;0.63;0.63;;;12.00;99.90;;;;;;5004802;28;20600;-80
2022/04/24 06:38:50;;;;;;;0.53;0.53;;;12.00;99.90;;;;;;4997675;28;20186;-80
2022/04/24 06:41:16;;;;;;;1.27;1.07;;;12.00;99.90;;;;;;4997903;28;20225;-80
2022/04/24 06:43:41;;;;;;;2.27;0.50;;;11.90;99.90;;;;;;4998541;28;20182;-80
2022/04/24 06:46:07;;;;;;;1.10;0.40;;;12.00;99.90;;;;;;4997831;28;20208;-80
2022/04/24 06:48:32;;;;;;;0.50;0.50;;;12.10;99.90;;;;;;5012980;28;20288;-80
2022/04/24 06:50:58;;;;;;;0.53;0.50;;;12.10;99.90;;;;;;4997565;28;20188;-80
2022/04/24 06:53:25;;;;;;;0.73;0.63;;;12.00;99.90;;;;;;4996227;28;20181;-80
2022/04/24 06:55:50;;;;;;;1.77;0.60;;;12.10;99.90;;;;;;4999195;28;20810;-80
2022/04/24 06:58:18;;;;;;;1.23;1.23;;;12.00;99.90;;;;;;4996686;28;20298;-80
2022/04/24 07:00:46;;;;;;;0.40;0.40;;;12.00;99.90;;;;;;5004079;28;20233;-80
2022/04/24 07:03:13;;;;;;;0.40;0.40;;;12.10;99.90;;;;;;4996174;28;20183;-80
2022/04/24 07:05:40;;;;;;;0.60;0.60;;;12.10;99.90;;;;;;5003720;28;20196;-80
2022/04/24 07:08:06;;;;;;;0.63;0.63;;;12.20;99.90;;;;;;4996339;28;20287;-80
2022/04/24 07:10:31;;;;;;;0.67;0.50;;;12.30;99.90;;;;;;4995682;28;20254;-80
2022/04/24 07:12:57;;;;;;;0.43;0.43;;;12.30;99.90;;;;;;5003940;28;20177;-80
2022/04/24 07:15:24;;;;;;;0.80;0.80;;;12.40;99.90;;;;;;4997246;28;20183;-81
2022/04/24 07:17:51;;;;;;;0.57;0.57;;;12.30;99.90;;;;;;5012072;28;20577;-80
2022/04/24 07:20:18;;;;;;;0.60;0.60;;;12.20;99.90;;;;;;4996975;28;20203;-80
2022/04/24 07:22:51;;;;;;;0.40;0.40;;;12.30;99.90;;;;;;5011480;28;20190;-80
2022/04/24 07:25:22;;;;;;;0.87;0.43;;;12.30;99.90;;;;;;4997280;28;21110;-80
2022/04/24 07:27:47;;;;;;;0.80;0.80;;;12.40;99.90;;;;;;4995985;28;20586;-80
2022/04/24 07:30:14;;;;;;;0.40;0.40;;;12.60;99.90;;;;;;4996789;28;20203;-80
2022/04/24 07:32:42;;;;;;;0.60;0.60;;;12.80;99.90;;;;;;5003827;28;21040;-82
2022/04/24 07:35:13;;;;;;;0.80;0.80;;;13.00;99.90;;;;;;4997226;28;20230;-82
2022/04/24 07:37:39;;;;;;;1.43;1.00;;;13.10;99.90;;;;;;5003727;28;20297;-80
2022/04/24 07:40:07;;;;;;;0.93;0.70;;;13.10;99.90;;;;;;4996988;28;20207;-80
2022/04/24 07:42:50;;;;;;;0.70;0.70;;;13.10;99.90;;;;;;4997393;28;20205;-80
2022/04/24 07:45:24;;;;;;;0.50;0.50;;;13.30;99.90;;;;;;4997831;28;20686;-80
2022/04/24 07:47:52;;;;;;;2.40;0.67;;;13.40;99.90;;;;;;4996074;28;20224;-80
2022/04/24 07:50:20;;;;;;;1.23;0.93;;;13.50;99.90;;;;;;4995447;28;20287;-80
2022/04/24 07:52:47;;;;;;;0.47;0.47;;;13.60;99.90;;;;;;5002591;28;20306;-80
2022/04/24 07:55:14;;;;;;;0.70;0.70;;;13.60;99.90;;;;;;4996112;28;20259;-80
2022/04/24 07:57:40;;;;;;;0.63;0.60;;;13.40;99.90;;;;;;5003953;28;20688;-80
2022/04/24 08:00:07;;;;;;;0.93;0.93;;;13.40;99.90;;;;;;4997387;28;20803;-80
2022/04/24 08:02:32;;;;;;;0.80;0.40;;;13.40;99.90;;;;;;4996692;28;20280;-82
2022/04/24 08:04:58;;;;;;;0.77;0.77;;;13.40;99.90;;;;;;4999810;28;20263;-82
2022/04/24 08:07:23;;;;;;;1.13;1.03;;;13.50;99.90;;;;;;5006583;28;20233;-81
2022/04/24 08:09:49;;;;;;;0.97;0.73;;;13.40;99.90;;;;;;5016083;28;20319;-82
2022/04/24 08:12:16;;;;;;;0.57;0.57;;;13.40;99.90;;;;;;4998698;28;20246;-82
2022/04/24 08:14:42;;;;;;;1.10;0.80;;;13.50;99.90;;;;;;5015776;28;20634;-82
2022/04/24 08:17:07;;;;;;;1.27;0.63;;;13.50;99.90;;;;;;5017237;28;20243;-82
2022/04/24 08:19:33;;;;;;;0.77;0.77;;;13.80;99.90;;;;;;4999969;28;20219;-82
2022/04/24 08:21:58;;;;;;;0.40;0.40;;;13.90;99.90;;;;;;5000934;28;20241;-82
2022/04/24 08:24:24;;;;;;;1.80;1.07;;;13.70;99.90;;;;;;5015653;28;20199;-82
2022/04/24 08:26:49;;;;;;;0.57;0.57;;;13.80;99.90;;;;;;5006669;28;20278;-81
2022/04/24 08:29:15;;;;;;;0.63;0.63;;;13.80;99.90;;;;;;4999834;28;20212;-82
2022/04/24 08:31:40;;;;;;;2.17;1.07;;;13.90;99.90;;;;;;5006414;28;20227;-81
2022/04/24 08:34:06;;;;;;;0.67;0.67;;;13.60;99.90;;;;;;5014662;28;20205;-82
2022/04/24 08:36:31;;;;;;;1.03;0.80;;;13.70;99.90;;;;;;5006749;28;20318;-82
2022/04/24 08:38:57;;;;;;;0.60;0.60;;;13.70;99.90;;;;;;5000183;28;20199;-81
2022/04/24 08:41:29;;;;;;;0.73;0.73;;;13.90;99.90;;;;;;5001403;28;20183;-82
2022/04/24 08:43:55;;;;;;;1.77;0.80;;;14.10;99.90;;;;;;4998946;28;20188;-82
2022/04/24 08:46:23;;;;;;;2.23;1.40;;;14.40;99.90;;;;;;5005845;28;20975;-82
2022/04/24 08:48:49;;;;;;;0.93;0.93;;;14.80;99.90;;;;;;5005474;28;20209;-82
2022/04/24 08:51:15;;;;;;;0.63;0.43;;;14.90;99.90;;;;;;5006641;28;20206;-82
2022/04/24 08:53:41;;;;;;;1.37;0.73;;;14.90;99.90;;;;;;5015274;28;20255;-82
2022/04/24 08:56:07;;;;;;;0.93;0.63;;;14.90;99.90;;;;;;4999662;28;20195;-82
2022/04/24 08:58:35;;;;;;;0.63;0.63;;;15.40;99.90;;;;;;4997921;28;20799;-82
2022/04/24 09:01:01;;;;;;;0.93;0.60;;;15.50;99.90;;;;;;4996435;28;20206;-82
2022/04/24 09:03:26;;;;;;;0.50;0.50;;;16.10;99.90;;;;;;4998779;28;20187;-82
2022/04/24 09:05:52;;;;;;;0.90;0.70;;;15.90;99.90;;;;;;5005612;28;20183;-83
2022/04/24 09:08:24;;;;;;;2.23;0.83;;;15.20;99.90;;;;;;5004714;28;20202;-82
2022/04/24 09:10:59;;;;;;;1.40;1.30;;;15.90;99.90;;;;;;4999083;28;20260;-82
2022/04/24 09:13:29;;;;;;;1.07;1.00;;;16.30;99.90;;;;;;5000041;28;20734;-82
2022/04/24 09:15:59;;;;;;;1.03;0.73;;;16.10;99.90;;;;;;5014859;28;20647;-82
2022/04/24 09:18:40;;;;;;;0.57;0.57;;;15.70;99.90;;;;;;5004390;28;20260;-82
2022/04/24 09:21:07;;;;;;;1.47;0.70;;;16.10;99.90;;;;;;5005547;28;20698;-82
2022/04/24 09:23:36;;;;;;;1.60;1.23;;;16.30;99.90;;;;;;5000201;28;20294;-82
2022/04/24 09:26:02;;;;;;;1.37;1.23;;;15.80;99.90;;;;;;4999935;28;20182;-81
2022/04/24 09:28:38;;;;;;;0.73;0.50;;;16.10;99.90;;;;;;4998975;28;20191;-82
2022/04/24 09:31:05;;;;;;;1.60;0.63;;;16.20;99.90;;;;;;4998945;28;20192;-82
2022/04/24 09:33:43;;;;;;;1.83;1.40;;;15.70;99.90;;;;;;4999151;28;20306;-82
2022/04/24 09:36:10;;;;;;;0.87;0.83;;;16.00;99.90;;;;;;4999794;28;20193;-81
2022/04/24 09:38:41;;;;;;;0.80;0.80;;;16.10;99.90;;;;;;4999117;28;20252;-81
2022/04/24 09:41:15;;;;;;;1.10;0.67;;;16.30;99.90;;;;;;4998986;28;20187;-82
2022/04/24 09:43:42;;;;;;;1.50;0.97;;;16.60;99.90;;;;;;5014320;28;20245;-81
2022/04/24 09:46:07;;;;;;;0.73;0.53;;;16.20;99.90;;;;;;4997256;28;20182;-81
2022/04/24 09:48:33;;;;;;;1.10;1.00;;;15.80;99.90;;;;;;4999795;28;20312;-80
2022/04/24 09:50:59;;;;;;;1.57;1.47;;;15.80;99.90;;;;;;4999328;28;20268;-80
2022/04/24 09:53:27;;;;;;;0.70;0.70;;;15.80;99.90;;;;;;5000234;28;20452;-81
2022/04/24 09:55:54;;;;;;;2.40;1.53;;;15.90;99.90;;;;;;5001518;28;20271;-81
2022/04/24 09:58:22;;;;;;;0.70;0.70;;;16.10;99.90;;;;;;5008479;28;20221;-81
2022/04/24 10:00:51;;;;;;;2.00;1.43;;;15.90;99.90;;;;;;5006130;28;20365;-81
2022/04/24 10:03:19;;;;;;;0.43;0.43;;;16.00;99.90;;;;;;5002852;28;20183;-81
2022/04/24 10:05:47;;;;;;;1.13;0.60;;;16.30;99.90;;;;;;5002237;28;20209;-81
2022/04/24 10:08:13;;;;;;;3.00;1.70;;;16.70;99.90;;;;;;5007876;28;20201;-81
2022/04/24 10:10:40;;;;;;;1.47;1.07;;;16.40;99.90;;;;;;5008147;28;20301;-81
2022/04/24 10:13:09;;;;;;;0.73;0.73;;;16.10;99.90;;;;;;5001450;28;20193;-81
2022/04/24 10:15:38;;;;;;;1.73;1.23;;;16.10;99.90;;;;;;4999129;28;20188;-81
2022/04/24 10:18:38;;;;;;;1.10;0.97;;;15.90;99.90;;;;;;5015302;28;20251;-81
2022/04/24 10:21:22;;;;;;;1.60;1.23;;;16.10;99.90;;;;;;4990971;28;20623;-81
2022/04/24 10:23:48;;;;;;;4.13;1.13;;;16.30;99.90;;;;;;4998775;28;20320;-81
2022/04/24 10:26:19;;;;;;;2.23;1.93;;;15.90;99.90;;;;;;5004138;28;20295;-81
2022/04/24 10:28:46;;;;;;;1.33;1.10;;;16.20;99.90;;;;;;4999831;28;21217;-81
2022/04/24 10:31:13;;;;;;;1.00;0.67;;;16.00;99.90;;;;;;5005866;28;20187;-81
2022/04/24 10:33:40;;;;;;;0.63;0.63;;;15.90;99.90;;;;;;5012921;28;20201;-81
2022/04/24 10:36:05;;;;;;;6.23;0.50;;;15.80;99.90;;;;;;5013241;28;20203;-81
2022/04/24 10:38:33;;;;;;;1.07;0.97;;;16.20;99.90;;;;;;4997895;28;20242;-81
2022/04/24 10:41:07;;;;;;;2.30;1.93;;;16.40;99.90;;;;;;5006083;28;20198;-81
2022/04/24 10:43:37;;;;;;;0.60;0.60;;;16.30;99.90;;;;;;5004864;28;20218;-81
2022/04/24 10:46:15;;;;;;;1.50;1.40;;;16.70;99.90;;;;;;4998582;28;20194;-81
2022/04/24 10:48:41;;;;;;;1.40;0.73;;;16.80;99.90;;;;;;5008057;28;20179;-81
2022/04/24 10:51:06;;;;;;;3.00;1.23;;;16.80;99.90;;;;;;5002197;28;20187;-81
2022/04/24 10:53:52;;;;;;;1.87;0.73;;;16.40;99.90;;;;;;5000138;28;20195;-81
2022/04/24 10:56:19;;;;;;;1.87;1.17;;;16.50;99.90;;;;;;5016326;28;20545;-81
2022/04/24 10:58:44;;;;;;;3.60;2.10;;;15.90;99.90;;;;;;5017009;28;20193;-81
2022/04/24 11:01:14;;;;;;;1.23;1.13;;;15.60;99.90;;;;;;5007819;28;20195;-81
2022/04/24 11:03:45;;;;;;;0.83;0.83;;;15.80;99.90;;;;;;5001234;28;20656;-81
2022/04/24 11:06:23;;;;;;;0.77;0.43;;;16.20;99.90;;;;;;5002008;28;20199;-81
2022/04/24 11:08:50;;;;;;;1.27;0.73;;;16.40;99.90;;;;;;5005867;28;20257;-81
2022/04/24 11:11:18;;;;;;;1.90;0.70;;;16.60;99.90;;;;;;5002257;28;20244;-81
2022/04/24 11:13:44;;;;;;;0.50;0.50;;;16.60;99.90;;;;;;5001482;28;20654;-81
2022/04/24 11:16:11;;;;;;;0.70;0.57;;;16.60;99.90;;;;;;5001277;28;20700;-81
2022/04/24 11:18:37;;;;;;;0.40;0.40;;;16.50;99.90;;;;;;5001288;28;20729;-81
2022/04/24 11:21:06;;;;;;;2.00;0.70;;;16.50;99.90;;;;;;5008077;28;20273;-81
2022/04/24 11:23:38;;;;;;;1.27;0.70;;;16.50;99.90;;;;;;4997936;28;20202;-81
2022/04/24 11:26:08;;;;;;;2.23;1.17;;;16.40;99.90;;;;;;5001887;28;20808;-81
2022/04/24 11:28:48;;;;;;;0.93;0.70;;;16.50;99.90;;;;;;5014684;28;20199;-82
2022/04/24 11:31:19;;;;;;;0.93;0.93;;;16.60;99.90;;;;;;4998421;28;20207;-81
2022/04/24 11:33:53;;;;;;;2.13;0.50;;;16.80;99.90;;;;;;4998050;28;20279;-81
2022/04/24 11:36:19;;;;;;;1.00;0.70;;;16.30;99.90;;;;;;5003806;28;20193;-84
2022/04/24 11:38:48;;;;;;;0.90;0.90;;;15.50;99.90;;;;;;5006018;28;20274;-84
2022/04/24 11:41:14;;;;;;;0.47;0.47;;;15.40;99.90;;;;;;5001552;28;20187;-84
2022/04/24 11:43:43;;;;;;;0.87;0.87;;;15.20;99.90;;;;;;5000877;28;20250;-84
2022/04/24 11:51:36;;;;;;;1.43;0.93;;;15.20;99.90;;;;;;5001564;28;20254;-84
2022/04/24 11:54:02;;;;;;;0.70;0.70;;;15.30;99.90;;;;;;5002179;28;20436;-84
2022/04/24 11:56:32;;;;;;;1.00;0.90;;;15.20;99.90;;;;;;5009033;28;20234;-84
2022/04/24 11:59:17;;;;;;;1.30;0.93;;;15.10;99.90;;;;;;5018859;28;20239;-84
2022/04/24 12:01:44;;;;;;;0.73;0.73;;;15.10;99.90;;;;;;5002444;28;20469;-84
2022/04/24 12:04:20;;;;;;;2.30;1.20;;;15.20;99.90;;;;;;5007832;28;20221;-83
2022/04/24 12:06:46;;;;;;;1.07;1.03;;;15.20;99.90;;;;;;5009553;28;20211;-81
2022/04/24 12:09:12;;;;;;;1.20;1.10;;;15.30;99.90;;;;;;5004478;28;20297;-81
2022/04/24 12:11:37;;;;;;;1.17;0.90;;;15.30;99.90;;;;;;5003901;28;20215;-80
2022/04/24 12:14:10;;;;;;;0.80;0.80;;;15.40;99.90;;;;;;5019956;28;20285;-81
2022/04/24 12:16:39;;;;;;;1.07;0.70;;;15.30;99.90;;;;;;5021604;28;20185;-82
2022/04/24 12:19:05;;;;;;;1.07;0.90;;;15.40;99.90;;;;;;5009864;28;20245;-80
2022/04/24 12:21:32;;;;;;;1.10;1.10;;;15.50;99.90;;;;;;5004809;28;20262;-81
2022/04/24 12:23:58;;;;;;;1.07;1.07;;;15.80;99.90;;;;;;5009865;28;20189;-81
2022/04/24 12:26:24;;;;;;;1.53;0.93;;;15.90;99.90;;;;;;5002500;28;20182;-82
2022/04/24 12:28:50;;;;;;;1.00;0.70;;;16.10;99.90;;;;;;5010669;28;20259;-81
2022/04/24 12:31:27;;;;;;;0.60;0.60;;;16.10;99.90;;;;;;5005063;28;20251;-81
2022/04/24 12:33:57;;;;;;;0.90;0.90;;;16.10;99.90;;;;;;5004437;28;20317;-81
2022/04/24 12:36:23;;;;;;;1.23;0.90;;;16.00;99.90;;;;;;5005374;28;20190;-81
2022/04/24 12:39:06;;;;;;;1.57;1.17;;;16.00;99.90;;;;;;5004826;28;20186;-82
2022/04/24 12:41:35;;;;;;;1.93;1.07;;;16.10;99.90;;;;;;5004927;28;20186;-81
2022/04/24 12:44:03;;;;;;;1.33;0.80;;;16.10;99.90;;;;;;5004910;28;20201;-82
2022/04/24 12:46:29;;;;;;;1.70;1.53;;;16.00;99.90;;;;;;5003933;28;20277;-81
2022/04/24 12:48:57;;;;;;;2.17;1.40;;;15.90;99.90;;;;;;5019806;28;20281;-82
2022/04/24 12:51:24;;;;;;;1.10;0.90;;;15.90;99.90;;;;;;5003855;28;20277;-81
2022/04/24 12:53:55;;;;;;;2.17;1.63;;;15.60;99.90;;;;;;5009201;28;20190;-81